sensor_id;sensor_type;location;lat;lon;timestamp;temperature;humidity
35258;DHT22;21385;50.878;8.050;2022-11-15T00:00:06;12.60;99.90
35258;DHT22;21385;50.878;8.050;2022-11-15T00:02:32;12.70;99.90
35258;DHT22;21385;50.878;8.050;2022-11-15T00:04:58;12.80;99.90
35258;DHT22;21385;50.878;8.050;2022-11-15T00:07:23;12.80;99.90
35258;DHT22;21385;50.878;8.050;2022-11-15T00:09:49;12.80;99.90
35258;DHT22;21385;50.878;8.050;2022-11-15T00:12:14;12.80;99.90
35258;DHT22;21385;50.878;8.050;2022-11-15T00:14:40;12.80;99.90
35258;DHT22;21385;50.878;8.050;2022-11-15T00:17:05;12.70;99.90
35258;DHT22;21385;50.878;8.050;2022-11-15T00:19:31;12.70;99.90
35258;DHT22;21385;50.878;8.050;2022-11-15T00:21:56;12.70;99.90
35258;DHT22;21385;50.878;8.050;2022-11-15T00:24:22;12.80;99.90
35258;DHT22;21385;50.878;8.050;2022-11-15T00:26:48;12.80;99.90
35258;DHT22;21385;50.878;8.050;2022-11-15T00:29:13;12.90;99.90
35258;DHT22;21385;50.878;8.050;2022-11-15T00:31:39;12.90;99.90
35258;DHT22;21385;50.878;8.050;2022-11-15T00:34:04;12.90;99.90
35258;DHT22;21385;50.878;8.050;2022-11-15T00:36:32;12.80;99.90
35258;DHT22;21385;50.878;8.050;2022-11-15T00:38:58;12.90;99.90
35258;DHT22;21385;50.878;8.050;2022-11-15T00:41:24;12.90;99.90
35258;DHT22;21385;50.878;8.050;2022-11-15T00:43:49;12.90;99.90
35258;DHT22;21385;50.878;8.050;2022-11-15T00:46:15;12.90;99.90
35258;DHT22;21385;50.878;8.050;2022-11-15T00:48:40;12.90;99.90
35258;DHT22;21385;50.878;8.050;2022-11-15T00:51:06;13.00;99.90
35258;DHT22;21385;50.878;8.050;2022-11-15T00:53:31;13.00;99.90
35258;DHT22;21385;50.878;8.050;2022-11-15T00:55:57;13.00;99.90
35258;DHT22;21385;50.878;8.050;2022-11-15T00:58:22;13.00;99.90
35258;DHT22;21385;50.878;8.050;2022-11-15T01:00:48;13.00;99.90
35258;DHT22;21385;50.878;8.050;2022-11-15T01:03:13;13.00;99.90
35258;DHT22;21385;50.878;8.050;2022-11-15T01:05:39;13.00;99.90
35258;DHT22;21385;50.878;8.050;2022-11-15T01:08:04;13.00;99.90
35258;DHT22;21385;50.878;8.050;2022-11-15T01:10:30;13.00;99.90
35258;DHT22;21385;50.878;8.050;2022-11-15T01:12:56;13.00;99.90
35258;DHT22;21385;50.878;8.050;2022-11-15T01:15:21;13.10;99.90
35258;DHT22;21385;50.878;8.050;2022-11-15T01:17:47;13.10;99.90
35258;DHT22;21385;50.878;8.050;2022-11-15T01:20:12;13.20;99.90
35258;DHT22;21385;50.878;8.050;2022-11-15T01:22:38;13.10;99.90
35258;DHT22;21385;50.878;8.050;2022-11-15T01:25:03;13.10;99.90
35258;DHT22;21385;50.878;8.050;2022-11-15T01:27:29;13.10;99.90
35258;DHT22;21385;50.878;8.050;2022-11-15T01:29:55;13.10;99.90
35258;DHT22;21385;50.878;8.050;2022-11-15T01:32:20;13.10;99.90
35258;DHT22;21385;50.878;8.050;2022-11-15T01:34:46;13.10;99.90
35258;DHT22;21385;50.878;8.050;2022-11-15T01:37:11;13.00;99.90
35258;DHT22;21385;50.878;8.050;2022-11-15T01:39:37;13.00;99.90
35258;DHT22;21385;50.878;8.050;2022-11-15T01:42:02;13.00;99.90
35258;DHT22;21385;50.878;8.050;2022-11-15T01:47:03;13.00;99.90
35258;DHT22;21385;50.878;8.050;2022-11-15T01:49:32;13.00;99.90
35258;DHT22;21385;50.878;8.050;2022-11-15T01:52:01;13.00;99.90
35258;DHT22;21385;50.878;8.050;2022-11-15T01:54:28;13.00;99.90
35258;DHT22;21385;50.878;8.050;2022-11-15T01:57:01;13.00;99.90
35258;DHT22;21385;50.878;8.050;2022-11-15T01:59:29;13.00;99.90
35258;DHT22;21385;50.878;8.050;2022-11-15T02:01:55;12.90;99.90
35258;DHT22;21385;50.878;8.050;2022-11-15T02:04:32;12.90;99.90
35258;DHT22;21385;50.878;8.050;2022-11-15T02:06:58;12.90;99.90
35258;DHT22;21385;50.878;8.050;2022-11-15T02:09:25;12.90;99.90
35258;DHT22;21385;50.878;8.050;2022-11-15T02:11:51;12.90;99.90
35258;DHT22;21385;50.878;8.050;2022-11-15T02:14:20;12.90;99.90
35258;DHT22;21385;50.878;8.050;2022-11-15T02:28:45;12.60;99.90
35258;DHT22;21385;50.878;8.050;2022-11-15T02:31:28;12.50;99.90
35258;DHT22;21385;50.878;8.050;2022-11-15T02:39:35;12.40;99.90
35258;DHT22;21385;50.878;8.050;2022-11-15T02:45:37;12.30;99.90
35258;DHT22;21385;50.878;8.050;2022-11-15T02:48:06;12.30;99.90
35258;DHT22;21385;50.878;8.050;2022-11-15T02:50:32;12.30;99.90
35258;DHT22;21385;50.878;8.050;2022-11-15T02:52:59;12.20;99.90
35258;DHT22;21385;50.878;8.050;2022-11-15T02:55:33;12.20;99.90
35258;DHT22;21385;50.878;8.050;2022-11-15T03:07:07;12.00;99.90
35258;DHT22;21385;50.878;8.050;2022-11-15T03:09:42;12.00;99.90
35258;DHT22;21385;50.878;8.050;2022-11-15T03:12:26;12.00;99.90
35258;DHT22;21385;50.878;8.050;2022-11-15T03:15:00;12.00;99.90
35258;DHT22;21385;50.878;8.050;2022-11-15T03:17:30;12.00;99.90
35258;DHT22;21385;50.878;8.050;2022-11-15T03:19:59;11.90;99.90
35258;DHT22;21385;50.878;8.050;2022-11-15T03:22:28;11.90;99.90
35258;DHT22;21385;50.878;8.050;2022-11-15T03:24:58;12.00;99.90
35258;DHT22;21385;50.878;8.050;2022-11-15T03:27:28;12.00;99.90
35258;DHT22;21385;50.878;8.050;2022-11-15T03:30:00;12.00;99.90
35258;DHT22;21385;50.878;8.050;2022-11-15T03:32:30;12.00;99.90
35258;DHT22;21385;50.878;8.050;2022-11-15T03:35:06;12.10;99.90
35258;DHT22;21385;50.878;8.050;2022-11-15T03:40:08;12.10;99.90
35258;DHT22;21385;50.878;8.050;2022-11-15T03:42:54;12.10;99.90
35258;DHT22;21385;50.878;8.050;2022-11-15T03:45:28;12.10;99.90
35258;DHT22;21385;50.878;8.050;2022-11-15T03:50:38;12.20;99.90
35258;DHT22;21385;50.878;8.050;2022-11-15T03:53:04;12.20;99.90
35258;DHT22;21385;50.878;8.050;2022-11-15T03:55:31;12.20;99.90
35258;DHT22;21385;50.878;8.050;2022-11-15T03:57:59;12.20;99.90
35258;DHT22;21385;50.878;8.050;2022-11-15T04:00:25;12.20;99.90
35258;DHT22;21385;50.878;8.050;2022-11-15T04:02:51;12.20;99.90
35258;DHT22;21385;50.878;8.050;2022-11-15T04:05:16;12.20;99.90
35258;DHT22;21385;50.878;8.050;2022-11-15T04:07:42;12.20;99.90
35258;DHT22;21385;50.878;8.050;2022-11-15T04:10:09;12.30;99.90
35258;DHT22;21385;50.878;8.050;2022-11-15T04:12:37;12.30;99.90
35258;DHT22;21385;50.878;8.050;2022-11-15T04:15:08;12.30;99.90
35258;DHT22;21385;50.878;8.050;2022-11-15T04:17:36;12.30;99.90
35258;DHT22;21385;50.878;8.050;2022-11-15T04:20:13;12.30;99.90
35258;DHT22;21385;50.878;8.050;2022-11-15T04:22:59;12.20;99.90
35258;DHT22;21385;50.878;8.050;2022-11-15T04:25:44;12.30;99.90
35258;DHT22;21385;50.878;8.050;2022-11-15T04:28:11;12.30;99.90
35258;DHT22;21385;50.878;8.050;2022-11-15T04:30:37;12.20;99.90
35258;DHT22;21385;50.878;8.050;2022-11-15T04:33:03;12.20;99.90
35258;DHT22;21385;50.878;8.050;2022-11-15T04:35:29;12.20;99.90
35258;DHT22;21385;50.878;8.050;2022-11-15T04:37:55;12.30;99.90
35258;DHT22;21385;50.878;8.050;2022-11-15T04:40:21;12.20;99.90
35258;DHT22;21385;50.878;8.050;2022-11-15T04:42:46;12.30;99.90
35258;DHT22;21385;50.878;8.050;2022-11-15T04:45:12;12.20;99.90
35258;DHT22;21385;50.878;8.050;2022-11-15T04:47:38;12.30;99.90
35258;DHT22;21385;50.878;8.050;2022-11-15T04:50:03;12.20;99.90
35258;DHT22;21385;50.878;8.050;2022-11-15T04:52:29;12.20;99.90
35258;DHT22;21385;50.878;8.050;2022-11-15T04:54:55;12.20;99.90
35258;DHT22;21385;50.878;8.050;2022-11-15T04:57:20;12.20;99.90
35258;DHT22;21385;50.878;8.050;2022-11-15T04:59:46;12.20;99.90
35258;DHT22;21385;50.878;8.050;2022-11-15T05:02:12;12.20;99.90
35258;DHT22;21385;50.878;8.050;2022-11-15T05:04:37;12.20;99.90
35258;DHT22;21385;50.878;8.050;2022-11-15T05:07:03;12.20;99.90
35258;DHT22;21385;50.878;8.050;2022-11-15T05:09:31;12.20;99.90
35258;DHT22;21385;50.878;8.050;2022-11-15T05:11:57;12.20;99.90
35258;DHT22;21385;50.878;8.050;2022-11-15T05:14:22;12.20;99.90
35258;DHT22;21385;50.878;8.050;2022-11-15T05:16:49;12.20;99.90
35258;DHT22;21385;50.878;8.050;2022-11-15T05:19:14;12.20;99.90
35258;DHT22;21385;50.878;8.050;2022-11-15T05:21:40;12.30;99.90
35258;DHT22;21385;50.878;8.050;2022-11-15T05:24:06;12.30;99.90
35258;DHT22;21385;50.878;8.050;2022-11-15T05:26:32;12.30;99.90
35258;DHT22;21385;50.878;8.050;2022-11-15T05:28:59;12.30;99.90
35258;DHT22;21385;50.878;8.050;2022-11-15T05:31:25;12.30;99.90
35258;DHT22;21385;50.878;8.050;2022-11-15T05:33:55;12.30;99.90
35258;DHT22;21385;50.878;8.050;2022-11-15T05:36:56;12.30;99.90
35258;DHT22;21385;50.878;8.050;2022-11-15T05:39:22;12.30;99.90
35258;DHT22;21385;50.878;8.050;2022-11-15T05:41:52;12.30;99.90
35258;DHT22;21385;50.878;8.050;2022-11-15T05:44:22;12.20;99.90
35258;DHT22;21385;50.878;8.050;2022-11-15T05:46:49;12.30;99.90
35258;DHT22;21385;50.878;8.050;2022-11-15T05:49:20;12.30;99.90
35258;DHT22;21385;50.878;8.050;2022-11-15T05:51:48;12.30;99.90
35258;DHT22;21385;50.878;8.050;2022-11-15T05:54:15;12.30;99.90
35258;DHT22;21385;50.878;8.050;2022-11-15T05:56:41;12.20;99.90
35258;DHT22;21385;50.878;8.050;2022-11-15T05:59:09;12.30;99.90
35258;DHT22;21385;50.878;8.050;2022-11-15T06:01:35;12.30;99.90
35258;DHT22;21385;50.878;8.050;2022-11-15T06:04:04;12.30;99.90
35258;DHT22;21385;50.878;8.050;2022-11-15T06:06:29;12.30;99.90
35258;DHT22;21385;50.878;8.050;2022-11-15T06:08:55;12.30;99.90
35258;DHT22;21385;50.878;8.050;2022-11-15T06:11:20;12.30;99.90
35258;DHT22;21385;50.878;8.050;2022-11-15T06:13:46;12.30;99.90
35258;DHT22;21385;50.878;8.050;2022-11-15T06:16:11;12.30;99.90
35258;DHT22;21385;50.878;8.050;2022-11-15T06:18:37;12.30;99.90
35258;DHT22;21385;50.878;8.050;2022-11-15T06:21:03;12.20;99.90
35258;DHT22;21385;50.878;8.050;2022-11-15T06:23:32;12.20;99.90
35258;DHT22;21385;50.878;8.050;2022-11-15T06:25:58;12.10;99.90
35258;DHT22;21385;50.878;8.050;2022-11-15T06:28:25;12.10;99.90
35258;DHT22;21385;50.878;8.050;2022-11-15T06:30:53;12.10;99.90
35258;DHT22;21385;50.878;8.050;2022-11-15T06:33:18;12.10;99.90
35258;DHT22;21385;50.878;8.050;2022-11-15T06:35:44;12.10;99.90
35258;DHT22;21385;50.878;8.050;2022-11-15T06:38:10;12.20;99.90
35258;DHT22;21385;50.878;8.050;2022-11-15T06:40:37;12.20;99.90
35258;DHT22;21385;50.878;8.050;2022-11-15T06:43:04;12.20;99.90
35258;DHT22;21385;50.878;8.050;2022-11-15T06:45:30;12.20;99.90
35258;DHT22;21385;50.878;8.050;2022-11-15T06:47:56;12.10;99.90
35258;DHT22;21385;50.878;8.050;2022-11-15T06:50:22;12.10;99.90
35258;DHT22;21385;50.878;8.050;2022-11-15T06:52:47;12.00;99.90
35258;DHT22;21385;50.878;8.050;2022-11-15T06:55:13;12.00;99.90
35258;DHT22;21385;50.878;8.050;2022-11-15T06:57:49;12.00;99.90
35258;DHT22;21385;50.878;8.050;2022-11-15T07:00:16;12.10;99.90
35258;DHT22;21385;50.878;8.050;2022-11-15T07:02:42;12.00;99.90
35258;DHT22;21385;50.878;8.050;2022-11-15T07:05:08;11.90;99.90
35258;DHT22;21385;50.878;8.050;2022-11-15T07:07:33;11.90;99.90
35258;DHT22;21385;50.878;8.050;2022-11-15T07:09:59;12.00;99.90
35258;DHT22;21385;50.878;8.050;2022-11-15T07:12:24;12.00;99.90
35258;DHT22;21385;50.878;8.050;2022-11-15T07:14:50;12.00;99.90
35258;DHT22;21385;50.878;8.050;2022-11-15T07:17:15;12.00;99.90
35258;DHT22;21385;50.878;8.050;2022-11-15T07:19:41;12.10;99.90
35258;DHT22;21385;50.878;8.050;2022-11-15T07:22:06;12.10;99.90
35258;DHT22;21385;50.878;8.050;2022-11-15T07:24:32;12.00;99.90
35258;DHT22;21385;50.878;8.050;2022-11-15T07:26:57;12.00;99.90
35258;DHT22;21385;50.878;8.050;2022-11-15T07:29:23;12.10;99.90
35258;DHT22;21385;50.878;8.050;2022-11-15T07:31:49;12.10;99.90
35258;DHT22;21385;50.878;8.050;2022-11-15T07:34:15;12.10;99.90
35258;DHT22;21385;50.878;8.050;2022-11-15T07:36:41;12.10;99.90
35258;DHT22;21385;50.878;8.050;2022-11-15T07:39:07;12.20;99.90
35258;DHT22;21385;50.878;8.050;2022-11-15T07:41:32;12.20;99.90
35258;DHT22;21385;50.878;8.050;2022-11-15T07:43:58;12.30;99.90
35258;DHT22;21385;50.878;8.050;2022-11-15T07:46:24;12.30;99.90
35258;DHT22;21385;50.878;8.050;2022-11-15T07:48:49;12.30;99.90
35258;DHT22;21385;50.878;8.050;2022-11-15T07:51:16;12.30;99.90
35258;DHT22;21385;50.878;8.050;2022-11-15T07:53:43;12.40;99.90
35258;DHT22;21385;50.878;8.050;2022-11-15T07:56:09;12.40;99.90
35258;DHT22;21385;50.878;8.050;2022-11-15T07:58:35;12.30;99.90
35258;DHT22;21385;50.878;8.050;2022-11-15T08:01:08;12.30;99.90
35258;DHT22;21385;50.878;8.050;2022-11-15T08:03:34;12.30;99.90
35258;DHT22;21385;50.878;8.050;2022-11-15T08:06:00;12.30;99.90
35258;DHT22;21385;50.878;8.050;2022-11-15T08:08:25;12.40;99.90
35258;DHT22;21385;50.878;8.050;2022-11-15T08:10:51;12.50;99.90
35258;DHT22;21385;50.878;8.050;2022-11-15T08:13:16;12.50;99.90
35258;DHT22;21385;50.878;8.050;2022-11-15T08:15:42;12.50;99.90
35258;DHT22;21385;50.878;8.050;2022-11-15T08:18:14;12.70;99.90
35258;DHT22;21385;50.878;8.050;2022-11-15T08:20:40;13.00;99.90
35258;DHT22;21385;50.878;8.050;2022-11-15T08:23:06;13.20;99.90
35258;DHT22;21385;50.878;8.050;2022-11-15T08:25:34;13.50;99.90
35258;DHT22;21385;50.878;8.050;2022-11-15T08:28:03;13.70;99.90
35258;DHT22;21385;50.878;8.050;2022-11-15T08:30:30;13.90;99.90
35258;DHT22;21385;50.878;8.050;2022-11-15T08:32:57;13.90;99.90
35258;DHT22;21385;50.878;8.050;2022-11-15T08:35:24;13.80;99.90
35258;DHT22;21385;50.878;8.050;2022-11-15T08:37:49;13.80;99.90
35258;DHT22;21385;50.878;8.050;2022-11-15T08:40:15;13.70;99.90
35258;DHT22;21385;50.878;8.050;2022-11-15T08:42:41;13.70;99.90
35258;DHT22;21385;50.878;8.050;2022-11-15T08:45:07;13.70;99.90
35258;DHT22;21385;50.878;8.050;2022-11-15T08:47:34;13.80;99.90
35258;DHT22;21385;50.878;8.050;2022-11-15T08:49:59;13.80;99.90
35258;DHT22;21385;50.878;8.050;2022-11-15T08:52:25;13.80;99.90
35258;DHT22;21385;50.878;8.050;2022-11-15T08:54:51;13.90;99.90
35258;DHT22;21385;50.878;8.050;2022-11-15T08:57:17;13.90;99.90
35258;DHT22;21385;50.878;8.050;2022-11-15T08:59:42;14.00;99.90
35258;DHT22;21385;50.878;8.050;2022-11-15T09:02:12;13.90;99.90
35258;DHT22;21385;50.878;8.050;2022-11-15T09:04:43;13.90;99.90
35258;DHT22;21385;50.878;8.050;2022-11-15T09:07:10;13.90;99.90
35258;DHT22;21385;50.878;8.050;2022-11-15T09:09:36;13.80;99.90
35258;DHT22;21385;50.878;8.050;2022-11-15T09:12:02;13.80;99.90
35258;DHT22;21385;50.878;8.050;2022-11-15T09:14:27;13.70;99.90
35258;DHT22;21385;50.878;8.050;2022-11-15T09:16:53;13.60;99.90
35258;DHT22;21385;50.878;8.050;2022-11-15T09:19:18;13.60;99.90
35258;DHT22;21385;50.878;8.050;2022-11-15T09:21:44;13.60;99.90
35258;DHT22;21385;50.878;8.050;2022-11-15T09:24:10;13.50;99.90
35258;DHT22;21385;50.878;8.050;2022-11-15T09:26:35;13.50;99.90
35258;DHT22;21385;50.878;8.050;2022-11-15T09:29:01;13.40;99.90
35258;DHT22;21385;50.878;8.050;2022-11-15T09:31:27;13.50;99.90
35258;DHT22;21385;50.878;8.050;2022-11-15T09:33:53;13.40;99.90
35258;DHT22;21385;50.878;8.050;2022-11-15T09:36:18;13.40;99.90
35258;DHT22;21385;50.878;8.050;2022-11-15T09:38:44;13.30;99.90
35258;DHT22;21385;50.878;8.050;2022-11-15T09:46:55;13.40;99.90
35258;DHT22;21385;50.878;8.050;2022-11-15T09:49:23;13.40;99.90
35258;DHT22;21385;50.878;8.050;2022-11-15T09:51:51;13.40;99.90
35258;DHT22;21385;50.878;8.050;2022-11-15T09:54:30;13.50;99.90
35258;DHT22;21385;50.878;8.050;2022-11-15T10:05:14;13.80;99.90
35258;DHT22;21385;50.878;8.050;2022-11-15T10:11:09;13.80;99.90
35258;DHT22;21385;50.878;8.050;2022-11-15T10:13:30;13.90;99.90
35258;DHT22;21385;50.878;8.050;2022-11-15T10:16:19;14.00;99.90
35258;DHT22;21385;50.878;8.050;2022-11-15T10:19:00;14.10;99.90
35258;DHT22;21385;50.878;8.050;2022-11-15T10:24:22;14.40;99.90
35258;DHT22;21385;50.878;8.050;2022-11-15T10:26:49;14.60;99.90
35258;DHT22;21385;50.878;8.050;2022-11-15T10:29:19;14.50;99.90
35258;DHT22;21385;50.878;8.050;2022-11-15T10:31:45;14.50;99.90
35258;DHT22;21385;50.878;8.050;2022-11-15T10:34:19;14.50;99.90
35258;DHT22;21385;50.878;8.050;2022-11-15T10:36:46;14.60;99.90
35258;DHT22;21385;50.878;8.050;2022-11-15T10:39:13;14.50;99.90
35258;DHT22;21385;50.878;8.050;2022-11-15T10:41:42;14.50;99.90
35258;DHT22;21385;50.878;8.050;2022-11-15T10:46:43;14.40;99.90
35258;DHT22;21385;50.878;8.050;2022-11-15T10:49:21;14.50;99.90
35258;DHT22;21385;50.878;8.050;2022-11-15T10:51:56;14.50;99.90
35258;DHT22;21385;50.878;8.050;2022-11-15T10:54:40;14.40;99.90
35258;DHT22;21385;50.878;8.050;2022-11-15T10:57:12;14.40;99.90
35258;DHT22;21385;50.878;8.050;2022-11-15T10:59:38;14.30;99.90
35258;DHT22;21385;50.878;8.050;2022-11-15T11:04:56;14.20;99.90
35258;DHT22;21385;50.878;8.050;2022-11-15T11:07:28;14.20;99.90
35258;DHT22;21385;50.878;8.050;2022-11-15T11:10:18;14.30;99.90
35258;DHT22;21385;50.878;8.050;2022-11-15T11:12:43;14.40;99.90
35258;DHT22;21385;50.878;8.050;2022-11-15T11:15:12;14.50;99.90
35258;DHT22;21385;50.878;8.050;2022-11-15T11:20:41;14.50;99.90
35258;DHT22;21385;50.878;8.050;2022-11-15T11:31:45;14.80;99.90
35258;DHT22;21385;50.878;8.050;2022-11-15T11:34:29;14.90;99.90
35258;DHT22;21385;50.878;8.050;2022-11-15T11:37:43;14.80;99.90
35258;DHT22;21385;50.878;8.050;2022-11-15T11:40:29;14.90;99.90
35258;DHT22;21385;50.878;8.050;2022-11-15T11:46:09;14.80;99.90
35258;DHT22;21385;50.878;8.050;2022-11-15T11:48:44;14.80;99.90
35258;DHT22;21385;50.878;8.050;2022-11-15T11:51:26;14.90;99.90
35258;DHT22;21385;50.878;8.050;2022-11-15T11:54:03;14.90;99.90
35258;DHT22;21385;50.878;8.050;2022-11-15T11:56:36;15.00;99.90
35258;DHT22;21385;50.878;8.050;2022-11-15T12:02:30;15.00;99.90
35258;DHT22;21385;50.878;8.050;2022-11-15T12:05:22;15.20;99.90
35258;DHT22;21385;50.878;8.050;2022-11-15T12:07:50;15.50;99.90
35258;DHT22;21385;50.878;8.050;2022-11-15T12:10:20;15.60;99.90
35258;DHT22;21385;50.878;8.050;2022-11-15T12:13:13;15.60;99.90
35258;DHT22;21385;50.878;8.050;2022-11-15T12:15:58;15.70;99.90
35258;DHT22;21385;50.878;8.050;2022-11-15T12:18:25;15.70;99.90
35258;DHT22;21385;50.878;8.050;2022-11-15T12:21:02;15.80;99.90
35258;DHT22;21385;50.878;8.050;2022-11-15T12:23:37;15.90;99.90
35258;DHT22;21385;50.878;8.050;2022-11-15T12:26:06;16.00;99.90
35258;DHT22;21385;50.878;8.050;2022-11-15T12:28:40;15.90;99.90
35258;DHT22;21385;50.878;8.050;2022-11-15T12:31:32;15.70;99.90
35258;DHT22;21385;50.878;8.050;2022-11-15T12:34:03;15.50;99.90
35258;DHT22;21385;50.878;8.050;2022-11-15T12:36:39;15.50;99.90
35258;DHT22;21385;50.878;8.050;2022-11-15T12:39:12;15.50;99.90
35258;DHT22;21385;50.878;8.050;2022-11-15T12:41:43;15.50;99.90
35258;DHT22;21385;50.878;8.050;2022-11-15T13:02:28;15.40;99.90
35258;DHT22;21385;50.878;8.050;2022-11-15T13:20:49;15.50;99.90
35258;DHT22;21385;50.878;8.050;2022-11-15T13:23:15;15.40;99.90
35258;DHT22;21385;50.878;8.050;2022-11-15T13:26:13;15.30;99.90
35258;DHT22;21385;50.878;8.050;2022-11-15T13:28:45;15.20;99.90
35258;DHT22;21385;50.878;8.050;2022-11-15T13:31:24;15.20;99.90
35258;DHT22;21385;50.878;8.050;2022-11-15T13:33:50;15.10;99.90
35258;DHT22;21385;50.878;8.050;2022-11-15T13:36:22;15.10;99.90
35258;DHT22;21385;50.878;8.050;2022-11-15T13:41:23;15.10;99.90
35258;DHT22;21385;50.878;8.050;2022-11-15T13:43:50;15.10;99.90
35258;DHT22;21385;50.878;8.050;2022-11-15T13:48:42;15.10;99.90
35258;DHT22;21385;50.878;8.050;2022-11-15T13:57:03;15.10;99.90
35258;DHT22;21385;50.878;8.050;2022-11-15T13:59:33;15.00;99.90
35258;DHT22;21385;50.878;8.050;2022-11-15T14:02:03;15.00;99.90
35258;DHT22;21385;50.878;8.050;2022-11-15T14:04:38;15.00;99.90
35258;DHT22;21385;50.878;8.050;2022-11-15T14:07:04;15.10;99.90
35258;DHT22;21385;50.878;8.050;2022-11-15T14:09:33;15.00;99.90
35258;DHT22;21385;50.878;8.050;2022-11-15T14:12:00;15.00;99.90
35258;DHT22;21385;50.878;8.050;2022-11-15T14:14:29;15.00;99.90
35258;DHT22;21385;50.878;8.050;2022-11-15T14:17:00;14.90;99.90
35258;DHT22;21385;50.878;8.050;2022-11-15T14:22:20;14.90;99.90
35258;DHT22;21385;50.878;8.050;2022-11-15T14:27:30;14.70;99.90
35258;DHT22;21385;50.878;8.050;2022-11-15T14:29:56;14.70;99.90
35258;DHT22;21385;50.878;8.050;2022-11-15T14:32:24;14.60;99.90
35258;DHT22;21385;50.878;8.050;2022-11-15T14:35:02;14.60;99.90
35258;DHT22;21385;50.878;8.050;2022-11-15T14:37:29;14.60;99.90
35258;DHT22;21385;50.878;8.050;2022-11-15T14:39:58;14.50;99.90
35258;DHT22;21385;50.878;8.050;2022-11-15T14:42:24;14.60;99.90
35258;DHT22;21385;50.878;8.050;2022-11-15T14:44:50;14.60;99.90
35258;DHT22;21385;50.878;8.050;2022-11-15T14:47:15;14.50;99.90
35258;DHT22;21385;50.878;8.050;2022-11-15T14:49:41;14.40;99.90
35258;DHT22;21385;50.878;8.050;2022-11-15T14:54:48;14.40;99.90
35258;DHT22;21385;50.878;8.050;2022-11-15T14:57:13;14.30;99.90
35258;DHT22;21385;50.878;8.050;2022-11-15T14:59:39;14.30;99.90
35258;DHT22;21385;50.878;8.050;2022-11-15T15:02:19;14.30;99.90
35258;DHT22;21385;50.878;8.050;2022-11-15T15:04:45;14.30;99.90
35258;DHT22;21385;50.878;8.050;2022-11-15T15:07:11;14.20;99.90
35258;DHT22;21385;50.878;8.050;2022-11-15T15:09:37;14.20;99.90
35258;DHT22;21385;50.878;8.050;2022-11-15T15:12:03;14.10;99.90
35258;DHT22;21385;50.878;8.050;2022-11-15T15:14:29;14.10;99.90
35258;DHT22;21385;50.878;8.050;2022-11-15T15:16:54;14.10;99.90
35258;DHT22;21385;50.878;8.050;2022-11-15T15:19:20;14.00;99.90
35258;DHT22;21385;50.878;8.050;2022-11-15T15:21:45;14.00;99.90
35258;DHT22;21385;50.878;8.050;2022-11-15T15:24:14;14.00;99.90
35258;DHT22;21385;50.878;8.050;2022-11-15T15:26:40;14.00;99.90
35258;DHT22;21385;50.878;8.050;2022-11-15T15:29:06;13.90;99.90
35258;DHT22;21385;50.878;8.050;2022-11-15T15:31:34;13.90;99.90
35258;DHT22;21385;50.878;8.050;2022-11-15T15:33:59;13.80;99.90
35258;DHT22;21385;50.878;8.050;2022-11-15T15:36:25;13.80;99.90
35258;DHT22;21385;50.878;8.050;2022-11-15T15:38:51;13.80;99.90
35258;DHT22;21385;50.878;8.050;2022-11-15T15:41:16;13.70;99.90
35258;DHT22;21385;50.878;8.050;2022-11-15T15:43:42;13.80;99.90
35258;DHT22;21385;50.878;8.050;2022-11-15T15:46:14;13.70;99.90
35258;DHT22;21385;50.878;8.050;2022-11-15T15:48:40;13.70;99.90
35258;DHT22;21385;50.878;8.050;2022-11-15T15:51:06;13.70;99.90
35258;DHT22;21385;50.878;8.050;2022-11-15T15:53:32;13.60;99.90
35258;DHT22;21385;50.878;8.050;2022-11-15T15:55:58;13.60;99.90
35258;DHT22;21385;50.878;8.050;2022-11-15T15:58:23;13.60;99.90
35258;DHT22;21385;50.878;8.050;2022-11-15T16:00:49;13.60;99.90
35258;DHT22;21385;50.878;8.050;2022-11-15T16:03:15;13.60;99.90
35258;DHT22;21385;50.878;8.050;2022-11-15T16:05:40;13.60;99.90
35258;DHT22;21385;50.878;8.050;2022-11-15T16:08:16;13.50;99.90
35258;DHT22;21385;50.878;8.050;2022-11-15T16:10:42;13.50;99.90
35258;DHT22;21385;50.878;8.050;2022-11-15T16:13:08;13.40;99.90
35258;DHT22;21385;50.878;8.050;2022-11-15T16:15:35;13.30;99.90
35258;DHT22;21385;50.878;8.050;2022-11-15T16:18:01;13.30;99.90
35258;DHT22;21385;50.878;8.050;2022-11-15T16:20:42;13.30;99.90
35258;DHT22;21385;50.878;8.050;2022-11-15T16:23:13;13.20;99.90
35258;DHT22;21385;50.878;8.050;2022-11-15T16:28:04;13.20;99.90
35258;DHT22;21385;50.878;8.050;2022-11-15T16:30:30;13.10;99.90
35258;DHT22;21385;50.878;8.050;2022-11-15T16:32:55;13.10;99.90
35258;DHT22;21385;50.878;8.050;2022-11-15T16:35:21;13.00;99.90
35258;DHT22;21385;50.878;8.050;2022-11-15T16:37:46;13.00;99.90
35258;DHT22;21385;50.878;8.050;2022-11-15T16:40:27;12.90;99.90
35258;DHT22;21385;50.878;8.050;2022-11-15T16:42:55;12.90;99.90
35258;DHT22;21385;50.878;8.050;2022-11-15T16:45:21;12.90;99.90
35258;DHT22;21385;50.878;8.050;2022-11-15T16:47:47;12.90;99.90
35258;DHT22;21385;50.878;8.050;2022-11-15T16:50:20;12.80;99.90
35258;DHT22;21385;50.878;8.050;2022-11-15T16:52:52;12.90;99.90
35258;DHT22;21385;50.878;8.050;2022-11-15T16:55:18;12.90;99.90
35258;DHT22;21385;50.878;8.050;2022-11-15T16:57:44;12.90;99.90
35258;DHT22;21385;50.878;8.050;2022-11-15T17:00:11;12.90;99.90
35258;DHT22;21385;50.878;8.050;2022-11-15T17:02:41;12.90;99.90
35258;DHT22;21385;50.878;8.050;2022-11-15T17:05:07;12.90;99.90
35258;DHT22;21385;50.878;8.050;2022-11-15T17:07:33;12.80;99.90
35258;DHT22;21385;50.878;8.050;2022-11-15T17:09:58;12.80;99.90
35258;DHT22;21385;50.878;8.050;2022-11-15T17:12:24;12.80;99.90
35258;DHT22;21385;50.878;8.050;2022-11-15T17:14:49;12.80;99.90
35258;DHT22;21385;50.878;8.050;2022-11-15T17:17:15;12.80;99.90
35258;DHT22;21385;50.878;8.050;2022-11-15T17:19:40;12.80;99.90
35258;DHT22;21385;50.878;8.050;2022-11-15T17:22:06;12.80;99.90
35258;DHT22;21385;50.878;8.050;2022-11-15T17:24:32;12.80;99.90
35258;DHT22;21385;50.878;8.050;2022-11-15T17:26:57;12.80;99.90
35258;DHT22;21385;50.878;8.050;2022-11-15T17:29:23;12.80;99.90
35258;DHT22;21385;50.878;8.050;2022-11-15T17:31:49;12.80;99.90
35258;DHT22;21385;50.878;8.050;2022-11-15T17:34:14;12.70;99.90
35258;DHT22;21385;50.878;8.050;2022-11-15T17:36:40;12.70;99.90
35258;DHT22;21385;50.878;8.050;2022-11-15T17:39:05;12.70;99.90
35258;DHT22;21385;50.878;8.050;2022-11-15T17:41:31;12.70;99.90
35258;DHT22;21385;50.878;8.050;2022-11-15T17:43:57;12.70;99.90
35258;DHT22;21385;50.878;8.050;2022-11-15T17:46:24;12.70;99.90
35258;DHT22;21385;50.878;8.050;2022-11-15T17:48:50;12.70;99.90
35258;DHT22;21385;50.878;8.050;2022-11-15T17:51:17;12.70;99.90
35258;DHT22;21385;50.878;8.050;2022-11-15T17:53:45;12.70;99.90